Terminal Aerodrome Forecast
Issued by NWS Bismarck, ND

Home | Current Version | Previous Version | Graphics & Text | Print | Product List | Glossary On
Versions: 1 2 3 4 5 6 7 8 9 10 11 12 13 14 15 16 17 18 19 20 21 22 23
813
FTUS43 KBIS 191132
TAFBIS
TAF
KBIS 191132Z 1912/2012 14006KT P6SM FEW090 FEW250
     FM191300 15007KT P6SM VCTS BKN090CB
      TEMPO 1913/1916 24020G30KT 3SM TSRA BKN060CB
     FM191700 10008KT P6SM FEW030 SCT060
     FM192100 09008KT P6SM SCT040 BKN070
     FM200300 09005KT P6SM SKC=

USA.gov is the U.S. government's official web portal to all federal, state and local government web resources and services.